createdAt,value
2023-03-22T00:00:01.138Z,5.00
2023-03-22T00:02:33.765Z,4.63
2023-03-22T00:05:03.908Z,4.50
2023-03-22T00:07:34.665Z,4.33
2023-03-22T00:10:04.419Z,3.87
2023-03-22T00:12:35.500Z,4.27
2023-03-22T00:15:10.901Z,3.50
2023-03-22T00:17:45.117Z,3.57
2023-03-22T00:20:15.816Z,4.10
2023-03-22T00:22:46.839Z,3.77
2023-03-22T00:25:17.292Z,3.20
2023-03-22T00:27:53.788Z,2.73
2023-03-22T00:30:24.965Z,3.63
2023-03-22T00:32:56.808Z,3.40
2023-03-22T00:35:26.616Z,2.73
2023-03-22T00:37:57.685Z,3.40
2023-03-22T00:40:27.912Z,2.90
2023-03-22T00:42:59.232Z,2.83
2023-03-22T00:45:29.715Z,2.73
2023-03-22T00:48:02.289Z,2.70
2023-03-22T00:50:32.407Z,2.20
2023-03-22T00:53:02.854Z,2.93
2023-03-22T00:55:33.813Z,2.50
2023-03-22T00:58:04.559Z,3.10
2023-03-22T01:00:36.150Z,2.70
2023-03-22T01:03:09.000Z,2.60
2023-03-22T01:05:40.778Z,4.40
2023-03-22T01:08:15.161Z,3.67
2023-03-22T01:10:46.646Z,3.10
2023-03-22T01:13:20.253Z,3.67
2023-03-22T01:15:53.255Z,3.67
2023-03-22T01:18:25.932Z,3.47
2023-03-22T01:20:56.864Z,2.93
2023-03-22T01:23:26.786Z,3.20
2023-03-22T01:25:57.183Z,2.67
2023-03-22T01:28:27.956Z,2.70
2023-03-22T01:30:58.820Z,3.00
2023-03-22T01:33:31.882Z,2.97
2023-03-22T01:36:02.387Z,3.23
2023-03-22T01:38:32.205Z,2.50
2023-03-22T01:41:02.966Z,2.37
2023-03-22T01:43:33.171Z,3.20
2023-03-22T01:46:03.774Z,3.10
2023-03-22T01:48:42.368Z,2.10
2023-03-22T01:51:14.323Z,2.10
2023-03-22T01:53:47.295Z,2.20
2023-03-22T01:56:18.216Z,1.90
2023-03-22T01:58:49.037Z,3.30
2023-03-22T02:01:19.081Z,2.33
2023-03-22T02:03:55.652Z,2.27
2023-03-22T02:06:30.379Z,2.30
2023-03-22T02:09:01.896Z,2.37
2023-03-22T02:11:36.342Z,2.57
2023-03-22T02:14:27.283Z,2.17
2023-03-22T02:17:10.103Z,2.43
2023-03-22T02:20:22.926Z,2.57
2023-03-22T02:23:25.882Z,2.80
2023-03-22T02:26:27.999Z,2.60
2023-03-22T02:29:04.536Z,2.40
2023-03-22T02:32:09.912Z,3.40
2023-03-22T02:35:01.267Z,2.40
2023-03-22T02:37:59.932Z,2.83
2023-03-22T02:40:40.213Z,2.70
2023-03-22T02:43:16.141Z,2.90
2023-03-22T02:45:50.250Z,2.53
2023-03-22T02:48:23.781Z,2.80
2023-03-22T02:50:55.806Z,2.07
2023-03-22T02:53:29.537Z,2.70
2023-03-22T02:56:04.075Z,2.10
2023-03-22T02:58:39.849Z,1.90
2023-03-22T03:01:12.341Z,2.50
2023-03-22T03:03:43.397Z,2.40
2023-03-22T03:06:17.781Z,2.60
2023-03-22T03:08:52.396Z,2.13
2023-03-22T03:11:27.349Z,2.20
2023-03-22T03:13:57.526Z,2.33
2023-03-22T03:16:29.934Z,1.90
2023-03-22T03:19:07.274Z,2.40
2023-03-22T03:21:42.749Z,2.53
2023-03-22T03:24:22.155Z,2.23
2023-03-22T03:26:58.454Z,2.10
2023-03-22T03:29:37.632Z,2.40
2023-03-22T03:32:10.722Z,1.87
2023-03-22T03:34:45.851Z,2.17
2023-03-22T03:37:19.128Z,1.90
2023-03-22T03:39:53.362Z,2.33
2023-03-22T03:42:25.600Z,2.00
2023-03-22T03:44:56.197Z,1.90
2023-03-22T03:47:27.818Z,1.67
2023-03-22T03:49:58.584Z,2.73
2023-03-22T03:52:30.051Z,1.90
2023-03-22T03:55:00.410Z,2.23
2023-03-22T03:57:32.197Z,2.30
2023-03-22T04:00:04.211Z,2.70
2023-03-22T04:02:36.459Z,2.07
2023-03-22T04:05:07.853Z,2.13
2023-03-22T04:07:38.420Z,2.27
2023-03-22T04:10:10.858Z,2.87
2023-03-22T04:12:42.953Z,2.23
2023-03-22T04:15:13.726Z,2.60
2023-03-22T04:17:44.110Z,2.10
2023-03-22T04:20:14.552Z,2.40
2023-03-22T04:22:47.054Z,2.03
2023-03-22T04:25:19.634Z,2.63
2023-03-22T04:27:52.203Z,1.90
2023-03-22T04:30:23.272Z,3.10
2023-03-22T04:32:53.183Z,2.83
2023-03-22T04:35:23.839Z,2.50
2023-03-22T04:37:54.447Z,2.60
2023-03-22T04:40:27.467Z,3.03
2023-03-22T04:42:59.582Z,2.67
2023-03-22T04:45:32.456Z,2.70
2023-03-22T04:48:04.186Z,2.87
2023-03-22T04:50:34.487Z,3.03
2023-03-22T04:53:06.817Z,2.23
2023-03-22T04:55:37.463Z,3.23
2023-03-22T04:58:09.402Z,3.50
2023-03-22T05:00:42.594Z,2.77
2023-03-22T05:03:12.347Z,2.40
2023-03-22T05:05:42.796Z,3.50
2023-03-22T05:08:14.978Z,2.50
2023-03-22T05:10:46.027Z,2.80
2023-03-22T05:13:17.764Z,3.33
2023-03-22T05:15:49.944Z,2.80
2023-03-22T05:18:25.322Z,2.47
2023-03-22T05:20:57.501Z,2.63
2023-03-22T05:23:28.245Z,3.80
2023-03-22T05:26:02.210Z,2.57
2023-03-22T05:28:34.630Z,2.63
2023-03-22T05:31:06.525Z,3.07
2023-03-22T05:33:37.131Z,3.40
2023-03-22T05:36:08.122Z,3.60
2023-03-22T05:38:38.774Z,2.90
2023-03-22T05:41:11.227Z,3.10
2023-03-22T05:43:43.986Z,3.93
2023-03-22T05:46:15.383Z,4.27
2023-03-22T05:48:45.730Z,3.60
2023-03-22T05:51:19.640Z,3.00
2023-03-22T05:53:50.948Z,2.90
2023-03-22T05:56:24.799Z,4.17
2023-03-22T05:58:58.813Z,2.97
2023-03-22T06:01:29.224Z,4.43
2023-03-22T06:03:58.993Z,3.90
2023-03-22T06:06:30.301Z,4.47
2023-03-22T06:09:15.874Z,5.40
2023-03-22T06:11:46.745Z,4.40
2023-03-22T06:14:19.029Z,4.80
2023-03-22T06:16:50.276Z,3.50
2023-03-22T06:19:19.960Z,5.33
2023-03-22T06:21:52.098Z,5.10
2023-03-22T06:24:23.392Z,5.00
2023-03-22T06:26:54.290Z,5.67
2023-03-22T06:29:26.447Z,4.70
2023-03-22T06:31:56.424Z,5.50
2023-03-22T06:34:26.999Z,4.50
2023-03-22T06:36:57.608Z,5.60
2023-03-22T06:39:28.856Z,5.30
2023-03-22T06:41:59.660Z,5.10
2023-03-22T06:44:32.375Z,5.03
2023-03-22T06:47:03.566Z,6.07
2023-03-22T06:49:33.964Z,6.50
2023-03-22T06:52:04.903Z,6.30
2023-03-22T06:54:35.205Z,7.00
2023-03-22T06:57:06.243Z,6.83
2023-03-22T06:59:37.630Z,7.00
2023-03-22T07:02:08.526Z,7.00
2023-03-22T07:04:39.407Z,6.87
2023-03-22T07:07:09.572Z,5.93
2023-03-22T07:09:41.679Z,7.03
2023-03-22T07:12:12.402Z,6.57
2023-03-22T07:14:44.408Z,6.80
2023-03-22T07:17:14.463Z,6.40
2023-03-22T07:19:45.264Z,6.30
2023-03-22T07:22:16.259Z,6.60
2023-03-22T07:24:57.052Z,6.27
2023-03-22T07:27:27.983Z,6.73
2023-03-22T07:29:59.359Z,7.27
2023-03-22T07:32:31.103Z,6.23
2023-03-22T07:35:04.541Z,6.77
2023-03-22T07:37:35.026Z,6.43
2023-03-22T07:40:06.461Z,6.67
2023-03-22T07:42:37.195Z,7.10
2023-03-22T07:45:12.480Z,8.47
2023-03-22T07:47:42.422Z,6.10
2023-03-22T07:50:14.123Z,7.90
2023-03-22T07:52:44.746Z,5.70
2023-03-22T07:55:16.551Z,4.70
2023-03-22T07:57:49.706Z,5.10
2023-03-22T08:00:23.552Z,4.60
2023-03-22T08:02:54.455Z,4.70
2023-03-22T08:05:25.119Z,4.77
2023-03-22T08:07:57.283Z,6.03
2023-03-22T08:10:27.173Z,4.90
2023-03-22T08:12:57.378Z,5.27
2023-03-22T08:15:28.467Z,4.90
2023-03-22T08:18:01.342Z,4.30
2023-03-22T08:20:31.515Z,4.90
2023-03-22T08:23:02.002Z,5.43
2023-03-22T08:25:34.036Z,5.83
2023-03-22T08:28:04.136Z,5.40
2023-03-22T08:30:35.752Z,4.70
2023-03-22T08:33:06.737Z,5.10
2023-03-22T08:35:37.159Z,5.60
2023-03-22T08:38:07.386Z,4.27
2023-03-22T08:40:38.077Z,4.77
2023-03-22T08:43:08.693Z,5.87
2023-03-22T08:45:41.750Z,4.60
2023-03-22T08:48:12.476Z,3.87
2023-03-22T08:50:43.102Z,5.23
2023-03-22T08:53:14.389Z,4.80
2023-03-22T08:55:45.281Z,4.80
2023-03-22T08:58:17.033Z,5.97
2023-03-22T09:00:49.954Z,4.30
2023-03-22T09:03:21.606Z,4.63
2023-03-22T09:05:51.755Z,5.27
2023-03-22T09:08:22.437Z,4.37
2023-03-22T09:10:52.971Z,4.57
2023-03-22T09:13:23.531Z,4.73
2023-03-22T09:15:55.017Z,4.17
2023-03-22T09:18:25.863Z,4.20
2023-03-22T09:20:55.803Z,4.40
2023-03-22T09:23:26.734Z,4.33
2023-03-22T09:25:56.644Z,5.00
2023-03-22T09:28:28.183Z,4.83
2023-03-22T09:31:02.927Z,4.43
2023-03-22T09:33:33.411Z,4.73
2023-03-22T09:36:03.721Z,4.73
2023-03-22T09:38:35.899Z,4.97
2023-03-22T09:41:08.777Z,4.57
2023-03-22T09:43:40.638Z,4.73
2023-03-22T09:46:18.299Z,4.33
2023-03-22T09:48:51.171Z,5.20
2023-03-22T09:51:31.902Z,5.40
2023-03-22T09:54:01.706Z,5.13
2023-03-22T09:56:33.975Z,4.40
2023-03-22T09:59:09.140Z,5.70
2023-03-22T10:01:47.966Z,6.00
2023-03-22T10:04:37.586Z,6.50
2023-03-22T10:07:14.891Z,6.80
2023-03-22T10:09:54.625Z,6.83
2023-03-22T10:12:29.349Z,7.30
2023-03-22T10:15:06.833Z,6.80
2023-03-22T10:17:40.370Z,7.20
2023-03-22T10:20:19.735Z,7.80
2023-03-22T10:22:53.214Z,7.80
2023-03-22T10:25:33.053Z,7.03
2023-03-22T10:28:03.465Z,7.17
2023-03-22T10:30:37.560Z,8.13
2023-03-22T10:33:16.258Z,7.27
2023-03-22T10:35:46.892Z,8.37
2023-03-22T10:38:22.435Z,7.73
2023-03-22T10:40:54.024Z,7.50
2023-03-22T10:43:27.926Z,7.47
2023-03-22T10:45:59.691Z,9.40
2023-03-22T10:48:34.182Z,7.60
2023-03-22T10:51:05.392Z,8.60
2023-03-22T10:53:40.546Z,7.37
2023-03-22T10:56:16.108Z,7.40
2023-03-22T10:58:47.873Z,6.77
2023-03-22T11:01:26.317Z,7.40
2023-03-22T11:04:01.918Z,7.20
2023-03-22T11:06:35.786Z,6.97
2023-03-22T11:09:14.623Z,7.37
2023-03-22T11:11:52.063Z,7.53
2023-03-22T11:14:26.943Z,5.53
2023-03-22T11:17:00.490Z,6.20
2023-03-22T11:19:36.947Z,7.07
2023-03-22T11:22:10.744Z,6.00
2023-03-22T11:24:42.531Z,6.17
2023-03-22T11:27:22.819Z,6.97
2023-03-22T11:29:55.771Z,6.20
2023-03-22T11:32:31.917Z,5.67
2023-03-22T11:35:07.248Z,5.13
2023-03-22T11:37:44.626Z,15.07
2023-03-22T11:40:19.169Z,7.70
2023-03-22T11:42:51.440Z,7.40
2023-03-22T11:45:26.018Z,7.70
2023-03-22T11:47:56.953Z,9.30
2023-03-22T11:50:32.565Z,5.87
2023-03-22T11:53:05.539Z,4.70
2023-03-22T11:55:38.451Z,4.80
2023-03-22T11:58:09.356Z,4.77
2023-03-22T12:00:41.370Z,8.53
2023-03-22T12:03:16.906Z,4.70
2023-03-22T12:05:51.216Z,4.40
2023-03-22T12:08:26.313Z,3.90
2023-03-22T12:11:03.203Z,4.00
2023-03-22T12:13:40.492Z,3.63
2023-03-22T12:16:14.755Z,8.30
2023-03-22T12:18:50.795Z,4.77
2023-03-22T12:21:23.313Z,2.93
2023-03-22T12:23:56.130Z,3.17
2023-03-22T12:26:28.669Z,3.10
2023-03-22T12:29:01.025Z,6.20
2023-03-22T12:31:34.817Z,2.37
2023-03-22T12:34:09.163Z,2.57
2023-03-22T12:36:45.946Z,2.60
2023-03-22T12:39:22.046Z,2.83
2023-03-22T12:41:54.919Z,2.90
2023-03-22T12:44:29.212Z,3.23
2023-03-22T12:47:03.803Z,2.97
2023-03-22T12:49:41.429Z,11.73
2023-03-22T12:52:20.260Z,3.63
2023-03-22T12:54:52.959Z,2.50
2023-03-22T12:57:23.095Z,3.07
2023-03-22T12:59:55.330Z,2.50
2023-03-22T13:02:31.976Z,2.83
2023-03-22T13:05:05.324Z,6.20
2023-03-22T13:07:54.969Z,3.77
2023-03-22T13:11:01.985Z,2.40
2023-03-22T13:13:46.304Z,2.53
2023-03-22T13:16:22.744Z,1.63
2023-03-22T13:19:05.591Z,1.67
2023-03-22T13:21:40.671Z,2.57
2023-03-22T13:24:35.265Z,2.90
2023-03-22T13:27:08.947Z,3.97
2023-03-22T13:29:43.489Z,2.30
2023-03-22T13:32:31.246Z,1.50
2023-03-22T13:35:01.740Z,2.00
2023-03-22T13:37:35.965Z,2.20
2023-03-22T13:40:16.736Z,3.63
2023-03-22T13:42:48.160Z,3.93
2023-03-22T13:45:33.454Z,2.20
2023-03-22T13:48:12.567Z,2.40
2023-03-22T13:50:44.024Z,2.20
2023-03-22T13:53:22.227Z,3.80
2023-03-22T13:56:09.199Z,2.03
2023-03-22T13:58:51.712Z,1.80
2023-03-22T14:01:31.621Z,1.93
2023-03-22T14:04:05.914Z,3.20
2023-03-22T14:06:41.025Z,2.70
2023-03-22T14:09:16.813Z,6.13
2023-03-22T14:11:51.870Z,3.07
2023-03-22T14:14:27.246Z,1.80
2023-03-22T14:17:02.768Z,2.90
2023-03-22T14:19:38.389Z,4.23
